Time;durP1;ratioP1;P1;durP2;ratioP2;P2;SDS_P1;SDS_P2;PMS_P1;PMS_P2;Temp;Humidity;BMP_temperature;BMP_pressure;BME280_temperature;BME280_humidity;BME280_pressure;Samples;Min_cycle;Max_cycle;Signal;HPM_P1;HPM_P2
2022/12/14 00:01:35;;;;;;;46.90;25.75;;;-1.80;99.90;;;;;;4998376;28;93088;-75
2022/12/14 00:04:02;;;;;;;50.58;27.80;;;-1.80;99.90;;;;;;5016222;28;92493;-75
2022/12/14 00:06:31;;;;;;;52.33;27.23;;;-1.80;99.90;;;;;;5014401;28;95739;-75
2022/12/14 00:09:00;;;;;;;55.65;26.40;;;-1.80;99.90;;;;;;5015483;28;95472;-75
2022/12/14 00:11:27;;;;;;;48.58;25.55;;;-1.80;99.90;;;;;;5015959;28;92555;-75
2022/12/14 00:13:57;;;;;;;48.15;27.05;;;-1.80;99.90;;;;;;5014509;28;92567;-75
2022/12/14 00:16:26;;;;;;;58.08;28.75;;;-1.80;99.90;;;;;;5015701;28;93301;-75
2022/12/14 00:18:55;;;;;;;44.58;26.33;;;-1.80;99.90;;;;;;5015445;28;93106;-75
2022/12/14 00:21:23;;;;;;;54.75;26.08;;;-1.90;99.90;;;;;;4997952;28;92519;-75
2022/12/14 00:23:51;;;;;;;50.45;26.75;;;-1.80;99.90;;;;;;5015941;28;91733;-75
2022/12/14 00:26:23;;;;;;;49.55;27.17;;;-1.90;99.90;;;;;;5015739;28;93230;-75
2022/12/14 00:28:52;;;;;;;49.90;25.60;;;-1.90;99.90;;;;;;5013791;28;96059;-76
2022/12/14 00:31:20;;;;;;;55.03;28.65;;;-1.90;99.90;;;;;;4996781;28;94904;-75
2022/12/14 00:33:49;;;;;;;51.92;26.83;;;-1.90;99.90;;;;;;4980995;28;92450;-75
2022/12/14 00:36:16;;;;;;;47.35;26.23;;;-1.90;99.90;;;;;;5015534;28;95835;-75
2022/12/14 00:38:43;;;;;;;53.72;27.98;;;-1.90;99.90;;;;;;5013777;28;95330;-75
2022/12/14 00:41:11;;;;;;;52.10;27.13;;;-2.00;99.90;;;;;;5014104;28;92452;-75
2022/12/14 00:43:38;;;;;;;54.65;27.35;;;-2.00;99.90;;;;;;5014466;28;92993;-75
2022/12/14 00:46:05;;;;;;;51.03;24.75;;;-2.00;99.90;;;;;;5013825;28;94888;-75
2022/12/14 00:48:33;;;;;;;49.13;25.60;;;-2.00;99.90;;;;;;5015764;28;93105;-75
2022/12/14 00:50:59;;;;;;;46.72;23.35;;;-2.00;99.90;;;;;;5013735;28;92504;-75
2022/12/14 00:53:27;;;;;;;52.35;26.58;;;-2.00;99.90;;;;;;5015503;28;92391;-75
2022/12/14 00:55:53;;;;;;;47.63;25.27;;;-2.10;99.90;;;;;;5013391;28;95708;-76
2022/12/14 00:58:22;;;;;;;46.55;24.75;;;-2.10;99.90;;;;;;5013809;28;95522;-75
2022/12/14 01:01:05;;;;;;;49.33;24.73;;;-2.10;99.90;;;;;;5013588;28;92556;-76
2022/12/14 01:03:33;;;;;;;44.97;24.38;;;-2.10;99.90;;;;;;4996411;28;92445;-75
2022/12/14 01:06:00;;;;;;;49.85;25.27;;;-2.20;99.90;;;;;;5012493;28;109752;-76
2022/12/14 01:08:34;;;;;;;45.15;23.92;;;-2.20;99.90;;;;;;5013671;28;93121;-75
2022/12/14 01:11:08;;;;;;;48.83;24.90;;;-2.20;99.90;;;;;;5013710;28;92952;-75
2022/12/14 01:13:35;;;;;;;;;;;-2.30;99.90;;;;;;5016188;28;91752;-75
2022/12/14 01:16:11;;;;;;;46.35;24.05;;;-2.30;99.90;;;;;;5015145;28;96224;-75
2022/12/14 01:18:40;;;;;;;46.17;24.60;;;-2.30;99.90;;;;;;5015232;28;93141;-75
2022/12/14 01:21:21;;;;;;;48.05;24.75;;;-2.30;99.90;;;;;;5011887;28;95645;-75
2022/12/14 01:23:52;;;;;;;47.92;25.17;;;-2.40;99.90;;;;;;5030161;28;92352;-75
2022/12/14 01:26:20;;;;;;;46.95;23.60;;;-2.40;99.90;;;;;;5013907;28;93082;-75
2022/12/14 01:28:51;;;;;;;50.15;25.55;;;-2.40;99.90;;;;;;5014704;28;93148;-75
2022/12/14 01:31:20;;;;;;;50.08;25.80;;;-2.40;99.90;;;;;;5015110;28;93012;-75
2022/12/14 01:33:48;;;;;;;53.13;26.67;;;-2.50;99.90;;;;;;5013503;28;92559;-75
2022/12/14 01:36:17;;;;;;;48.40;25.83;;;-2.50;99.90;;;;;;5014364;28;101767;-75
2022/12/14 01:38:45;;;;;;;56.17;26.67;;;-2.50;99.90;;;;;;5015070;28;93689;-75
2022/12/14 01:41:26;;;;;;;52.90;25.73;;;-2.50;99.90;;;;;;5013220;28;92412;-74
2022/12/14 01:43:59;;;;;;;52.53;26.80;;;-2.50;99.90;;;;;;5014565;28;92480;-74
2022/12/14 01:46:32;;;;;;;50.85;26.02;;;-2.60;99.90;;;;;;4995284;28;98100;-74
2022/12/14 01:49:11;;;;;;;48.60;24.98;;;-2.60;99.90;;;;;;5014519;28;95363;-74
2022/12/14 01:51:42;;;;;;;46.45;23.90;;;-2.60;99.90;;;;;;4996686;28;92610;-74
2022/12/14 01:54:12;;;;;;;47.15;22.23;;;-2.70;99.90;;;;;;5014405;28;92778;-75
2022/12/14 01:56:43;;;;;;;49.55;24.45;;;-2.70;99.90;;;;;;5013059;28;93304;-74
2022/12/14 01:59:17;;;;;;;48.17;24.88;;;-2.80;99.90;;;;;;5013101;28;93150;-75
2022/12/14 02:01:45;;;;;;;48.88;23.38;;;-2.80;99.90;;;;;;5014827;28;92486;-75
2022/12/14 02:04:15;;;;;;;47.45;23.77;;;-2.90;99.90;;;;;;5013447;28;91680;-75
2022/12/14 02:06:44;;;;;;;53.97;25.20;;;-2.90;99.90;;;;;;5012802;28;93349;-75
2022/12/14 02:09:18;;;;;;;51.38;25.00;;;-2.90;99.90;;;;;;5012747;28;94259;-75
2022/12/14 02:11:48;;;;;;;47.05;24.50;;;-2.90;99.90;;;;;;5013509;28;95430;-75
2022/12/14 02:14:15;;;;;;;45.30;23.80;;;-3.00;99.90;;;;;;5015263;28;92447;-75
2022/12/14 02:16:42;;;;;;;49.92;23.17;;;-3.10;99.90;;;;;;4999643;28;95758;-75
2022/12/14 02:19:09;;;;;;;47.95;24.38;;;-3.10;99.90;;;;;;5017356;28;92685;-75
2022/12/14 02:21:54;;;;;;;42.63;22.65;;;-3.10;99.90;;;;;;5016185;28;92602;-75
2022/12/14 02:24:45;;;;;;;43.28;23.48;;;-3.10;99.90;;;;;;5017578;28;92451;-75
2022/12/14 02:27:48;;;;;;;43.88;21.58;;;-3.20;99.90;;;;;;5016302;28;92601;-75
2022/12/14 02:30:23;;;;;;;45.78;22.63;;;-3.20;99.90;;;;;;4999545;28;95744;-75
2022/12/14 02:33:16;;;;;;;45.35;22.13;;;-3.30;99.90;;;;;;5017717;28;92472;-75
2022/12/14 02:35:52;;;;;;;46.17;22.95;;;-3.30;99.90;;;;;;5016482;28;92470;-75
2022/12/14 02:38:19;;;;;;;43.75;23.98;;;-3.30;99.90;;;;;;5015875;28;95446;-75
2022/12/14 02:40:46;;;;;;;42.75;22.88;;;-3.40;99.90;;;;;;5015692;28;97151;-75
2022/12/14 02:43:19;;;;;;;46.88;22.45;;;-3.40;99.90;;;;;;5016026;28;93550;-74
2022/12/14 02:46:03;;;;;;;49.30;23.48;;;-3.40;99.90;;;;;;5015977;28;92450;-74
2022/12/14 02:48:39;;;;;;;43.97;22.17;;;-3.40;99.90;;;;;;5017187;28;93306;-74
2022/12/14 02:51:25;;;;;;;48.45;21.67;;;-3.50;99.90;;;;;;5017156;28;93289;-74
2022/12/14 02:54:37;;;;;;;45.00;23.92;;;-3.50;99.90;;;;;;5016144;28;92545;-74
2022/12/14 02:57:29;;;;;;;45.45;21.92;;;-3.60;99.90;;;;;;5013629;28;92374;-74
2022/12/14 03:00:01;;;;;;;45.92;22.92;;;-3.60;99.90;;;;;;5016068;28;92559;-74
2022/12/14 03:02:29;;;;;;;46.40;22.13;;;-3.60;99.90;;;;;;5015468;28;95611;-74
2022/12/14 03:04:57;;;;;;;42.10;21.90;;;-3.70;99.90;;;;;;5014758;28;95684;-74
2022/12/14 03:07:45;;;;;;;46.05;21.42;;;-3.70;99.90;;;;;;5016944;28;92450;-74
2022/12/14 03:10:26;;;;;;;44.45;21.50;;;-3.70;99.90;;;;;;5015500;28;93038;-74
2022/12/14 03:13:15;;;;;;;41.38;21.60;;;-3.70;99.90;;;;;;5017022;28;92963;-74
2022/12/14 03:15:46;;;;;;;44.33;23.42;;;-3.80;99.90;;;;;;5016604;28;92479;-74
2022/12/14 03:18:18;;;;;;;43.92;22.88;;;-3.80;99.90;;;;;;5017068;28;92458;-74
2022/12/14 03:20:50;;;;;;;44.22;23.60;;;-3.90;99.90;;;;;;4998552;28;96003;-74
2022/12/14 03:23:22;;;;;;;47.72;22.20;;;-3.90;99.90;;;;;;5017021;28;92995;-74
2022/12/14 03:26:09;;;;;;;42.58;22.15;;;-4.00;99.90;;;;;;5014877;28;92543;-74
2022/12/14 03:28:43;;;;;;;45.35;22.05;;;-4.00;99.90;;;;;;4975001;28;92587;-74
2022/12/14 03:31:20;;;;;;;43.80;22.30;;;-4.00;99.90;;;;;;5013799;28;98950;-74
2022/12/14 03:33:49;;;;;;;46.00;22.55;;;-4.00;99.90;;;;;;5014916;28;98090;-74
2022/12/14 03:36:24;;;;;;;54.72;23.40;;;-4.10;99.90;;;;;;5016229;28;92931;-74
2022/12/14 03:38:56;;;;;;;44.53;21.70;;;-4.10;99.90;;;;;;4998645;28;92522;-74
2022/12/14 03:41:47;;;;;;;45.15;22.70;;;-4.20;99.90;;;;;;5016301;28;93549;-74
2022/12/14 03:44:31;;;;;;;47.05;22.70;;;-4.20;99.90;;;;;;5016362;28;93086;-74
2022/12/14 03:47:08;;;;;;;47.10;22.23;;;-4.30;99.90;;;;;;5016384;28;92440;-74
2022/12/14 03:49:47;;;;;;;46.63;23.38;;;-4.30;99.90;;;;;;5016962;28;92281;-74
2022/12/14 03:52:26;;;;;;;46.45;24.60;;;-4.30;99.90;;;;;;5016065;28;92417;-74
2022/12/14 03:55:11;;;;;;;47.40;23.20;;;-4.30;99.90;;;;;;5016325;28;93204;-74
2022/12/14 03:57:55;;;;;;;41.22;22.45;;;-4.30;99.90;;;;;;5015493;28;95367;-74
2022/12/14 04:00:23;;;;;;;49.40;24.80;;;-4.40;99.90;;;;;;4998268;28;92488;-74
2022/12/14 04:03:29;;;;;;;42.00;21.13;;;-4.40;99.90;;;;;;5031372;28;95895;-74
2022/12/14 04:06:24;;;;;;;36.65;16.90;;;-4.40;99.90;;;;;;4948430;28;94011;-74
2022/12/14 04:08:51;;;;;;;44.17;22.27;;;-4.50;99.90;;;;;;5014725;28;92516;-75
2022/12/14 04:20:00;;;;;;;40.72;21.73;;;-4.70;99.90;;;;;;5015980;28;92377;-74
2022/12/14 04:22:30;;;;;;;46.00;23.88;;;-4.70;99.90;;;;;;5015525;28;92419;-74
2022/12/14 04:27:53;;;;;;;50.20;23.33;;;-4.70;99.90;;;;;;5015772;28;95434;-74
2022/12/14 04:30:20;;;;;;;52.38;25.08;;;-4.70;99.90;;;;;;5015398;28;92450;-74
2022/12/14 04:32:52;;;;;;;51.85;26.00;;;-4.70;99.90;;;;;;5013942;28;99013;-74
2022/12/14 04:35:24;;;;;;;52.75;25.77;;;-4.70;99.90;;;;;;5014065;28;96135;-74
2022/12/14 04:37:58;;;;;;;49.78;25.20;;;-4.70;99.90;;;;;;5015780;28;92919;-74
2022/12/14 04:40:35;;;;;;;52.03;23.98;;;-4.70;99.90;;;;;;5014377;28;92419;-75
2022/12/14 04:43:06;;;;;;;49.20;23.77;;;-4.80;99.90;;;;;;5014452;28;91777;-74
2022/12/14 04:46:05;;;;;;;49.00;25.67;;;-4.80;99.90;;;;;;5013775;28;92969;-74
2022/12/14 04:48:58;;;;;;;54.30;24.33;;;-4.80;99.90;;;;;;4994392;28;94419;-75
2022/12/14 04:51:56;;;;;;;59.75;25.70;;;-4.80;99.90;;;;;;5014145;28;94846;-74
2022/12/14 04:54:53;;;;;;;56.20;26.60;;;-4.80;99.90;;;;;;4998505;28;92606;-75
2022/12/14 04:57:41;;;;;;;53.15;26.08;;;-4.80;99.90;;;;;;5015075;28;93403;-74
2022/12/14 05:00:09;;;;;;;57.30;25.77;;;-4.80;99.90;;;;;;5013869;28;95595;-74
2022/12/14 05:03:11;;;;;;;46.67;22.52;;;-4.80;99.90;;;;;;5013846;28;92434;-74
2022/12/14 05:06:07;;;;;;;48.30;24.10;;;-4.80;99.90;;;;;;5013330;28;92981;-74
2022/12/14 05:08:53;;;;;;;52.13;23.88;;;-4.70;99.90;;;;;;4996714;28;95697;-74
2022/12/14 05:11:43;;;;;;;56.15;24.55;;;-4.70;99.90;;;;;;5015673;28;92234;-75
2022/12/14 05:14:39;;;;;;;51.30;23.33;;;-4.70;99.90;;;;;;5015259;28;92376;-75
2022/12/14 05:17:07;;;;;;;54.03;24.42;;;-4.70;99.90;;;;;;5013856;28;92556;-75
2022/12/14 05:19:36;;;;;;;49.40;22.92;;;-4.70;99.90;;;;;;5013250;28;94798;-74
2022/12/14 05:22:07;;;;;;;49.22;23.67;;;-4.70;99.90;;;;;;5030327;28;98288;-74
2022/12/14 05:24:34;;;;;;;47.05;23.20;;;-4.60;99.90;;;;;;5014793;28;92384;-74
2022/12/14 05:27:01;;;;;;;51.92;22.10;;;-4.60;99.90;;;;;;5013352;28;92573;-75
2022/12/14 05:29:28;;;;;;;45.40;23.30;;;-4.60;99.90;;;;;;5014672;28;93167;-74
2022/12/14 05:31:55;;;;;;;46.25;21.85;;;-4.60;99.90;;;;;;5014819;28;92995;-74
2022/12/14 05:34:22;;;;;;;44.05;20.90;;;-4.60;99.90;;;;;;4996948;28;92811;-74
2022/12/14 05:36:49;;;;;;;48.03;21.63;;;-4.60;99.90;;;;;;5013858;28;91766;-74
2022/12/14 05:39:16;;;;;;;48.17;21.33;;;-4.60;99.90;;;;;;5014296;28;106157;-74
2022/12/14 05:41:43;;;;;;;48.50;21.67;;;-4.60;99.90;;;;;;5014414;28;92580;-75
2022/12/14 05:44:10;;;;;;;42.25;21.98;;;-4.60;99.90;;;;;;5013587;28;95324;-74
2022/12/14 05:46:37;;;;;;;44.42;20.58;;;-4.60;99.90;;;;;;5013084;28;92540;-75
2022/12/14 05:49:04;;;;;;;47.17;22.98;;;-4.60;99.90;;;;;;5014191;28;93221;-75
2022/12/14 05:51:31;;;;;;;53.47;22.92;;;-4.60;99.90;;;;;;5016763;28;92434;-75
2022/12/14 05:53:58;;;;;;;48.10;22.23;;;-4.60;99.90;;;;;;5018274;28;93014;-75
2022/12/14 05:56:25;;;;;;;40.95;20.83;;;-4.60;99.90;;;;;;5018279;28;92511;-74
2022/12/14 05:58:52;;;;;;;45.13;21.52;;;-4.60;99.90;;;;;;5016757;28;93451;-74
2022/12/14 06:01:19;;;;;;;41.38;19.58;;;-4.60;99.90;;;;;;5017028;28;93180;-74
2022/12/14 06:03:46;;;;;;;43.10;20.33;;;-4.60;99.90;;;;;;5016251;28;92421;-74
2022/12/14 06:06:13;;;;;;;47.83;21.20;;;-4.60;99.90;;;;;;5016332;28;92492;-75
2022/12/14 06:08:43;;;;;;;40.13;20.05;;;-4.60;99.90;;;;;;4998558;28;98379;-75
2022/12/14 06:11:28;;;;;;;43.35;21.10;;;-4.60;99.90;;;;;;5017961;28;95540;-75
2022/12/14 06:13:55;;;;;;;44.83;21.08;;;-4.60;99.90;;;;;;5018159;28;92404;-74
2022/12/14 06:16:25;;;;;;;46.92;22.00;;;-4.60;99.90;;;;;;5016650;28;92895;-74
2022/12/14 06:18:54;;;;;;;42.58;19.70;;;-4.60;99.90;;;;;;4999412;28;96182;-74
2022/12/14 06:21:24;;;;;;;45.67;21.58;;;-4.60;99.90;;;;;;5017398;28;92991;-74
2022/12/14 06:23:53;;;;;;;36.15;19.35;;;-4.60;99.90;;;;;;5017933;28;92471;-75
2022/12/14 06:26:20;;;;;;;37.85;17.60;;;-4.60;99.90;;;;;;5018135;28;91638;-75
2022/12/14 06:28:47;;;;;;;35.65;17.42;;;-4.60;99.90;;;;;;5017197;28;93289;-75
2022/12/14 06:31:19;;;;;;;37.15;18.00;;;-4.60;99.90;;;;;;5016316;28;92490;-75
2022/12/14 06:33:47;;;;;;;37.85;18.60;;;-4.60;99.90;;;;;;5016319;28;94809;-74
2022/12/14 06:36:23;;;;;;;38.30;17.63;;;-4.60;99.90;;;;;;5017395;28;92494;-74
2022/12/14 06:38:51;;;;;;;35.97;18.77;;;-4.60;99.90;;;;;;5016076;28;93316;-74
2022/12/14 06:41:19;;;;;;;41.60;18.50;;;-4.60;99.90;;;;;;5017527;28;93153;-74
2022/12/14 06:43:46;;;;;;;35.78;17.70;;;-4.70;99.90;;;;;;5015658;28;92414;-74
2022/12/14 06:46:17;;;;;;;36.13;17.00;;;-4.60;99.90;;;;;;5017302;28;92447;-75
2022/12/14 06:48:51;;;;;;;35.13;18.75;;;-4.70;99.90;;;;;;5016906;28;93180;-75
2022/12/14 06:51:20;;;;;;;38.13;18.45;;;-4.70;99.90;;;;;;4999771;28;95569;-75
2022/12/14 06:53:52;;;;;;;38.95;17.55;;;-4.70;99.90;;;;;;5016839;28;101321;-75
2022/12/14 06:56:23;;;;;;;33.75;16.65;;;-4.70;99.90;;;;;;5017266;28;92463;-75
2022/12/14 06:58:51;;;;;;;36.03;18.80;;;-4.70;99.90;;;;;;5015675;28;95614;-75
2022/12/14 07:01:21;;;;;;;47.42;22.55;;;-4.70;99.90;;;;;;5015711;28;95460;-75
2022/12/14 07:03:50;;;;;;;42.60;19.83;;;-4.70;99.90;;;;;;5017100;28;92495;-76
2022/12/14 07:06:17;;;;;;;44.35;21.67;;;-4.70;99.90;;;;;;4998936;28;92522;-75
2022/12/14 07:08:44;;;;;;;30.75;15.82;;;-4.70;99.90;;;;;;5015503;28;93373;-75
2022/12/14 07:11:13;;;;;;;40.13;19.92;;;-4.80;99.90;;;;;;5015293;28;95570;-75
2022/12/14 07:13:40;;;;;;;41.05;19.25;;;-4.70;99.90;;;;;;5016688;28;92445;-75
2022/12/14 07:16:17;;;;;;;37.22;18.55;;;-4.80;99.90;;;;;;5016002;28;91798;-75
2022/12/14 07:18:44;;;;;;;38.47;17.55;;;-4.80;99.90;;;;;;5016787;28;93019;-75
2022/12/14 07:21:13;;;;;;;34.05;18.13;;;-4.80;99.90;;;;;;4982358;28;95704;-75
2022/12/14 07:23:42;;;;;;;34.83;15.65;;;-4.80;99.90;;;;;;4997206;28;95073;-75
2022/12/14 07:26:17;;;;;;;33.50;17.92;;;-4.80;99.90;;;;;;5015201;28;93061;-75
2022/12/14 07:28:45;;;;;;;35.25;16.98;;;-4.80;99.90;;;;;;5016559;28;93263;-75
2022/12/14 07:31:15;;;;;;;38.40;17.85;;;-4.80;99.90;;;;;;5016596;28;92948;-74
2022/12/14 07:33:43;;;;;;;36.72;18.10;;;-4.90;99.90;;;;;;5016325;28;92518;-74
2022/12/14 07:36:12;;;;;;;39.05;17.88;;;-4.90;99.90;;;;;;5015277;28;92795;-74
2022/12/14 07:38:40;;;;;;;40.72;18.65;;;-4.90;99.90;;;;;;5016265;28;93260;-74
2022/12/14 07:41:13;;;;;;;35.97;18.02;;;-4.90;99.90;;;;;;5015544;28;93213;-74
2022/12/14 07:43:46;;;;;;;38.03;18.80;;;-4.80;99.90;;;;;;5016271;28;92497;-76
2022/12/14 07:46:18;;;;;;;35.20;17.15;;;-4.80;99.90;;;;;;5016725;28;92428;-75
2022/12/14 07:48:50;;;;;;;31.95;15.43;;;-4.80;99.90;;;;;;5013210;28;98182;-75
2022/12/14 07:51:20;;;;;;;35.78;17.02;;;-4.80;99.90;;;;;;5016107;28;95575;-75
2022/12/14 07:53:48;;;;;;;33.53;16.63;;;-4.80;99.90;;;;;;4998040;28;92441;-75
2022/12/14 07:56:19;;;;;;;34.15;17.60;;;-4.80;99.90;;;;;;5015266;28;92416;-75
2022/12/14 07:58:46;;;;;;;37.55;17.20;;;-4.80;99.90;;;;;;5016053;28;93171;-75
2022/12/14 08:01:14;;;;;;;41.97;18.08;;;-4.90;99.90;;;;;;5016140;28;92984;-75
2022/12/14 08:03:47;;;;;;;42.88;20.20;;;-4.80;99.90;;;;;;5015971;28;92514;-75
2022/12/14 08:06:15;;;;;;;44.33;21.60;;;-4.90;99.90;;;;;;5016170;28;92102;-75
2022/12/14 08:08:42;;;;;;;42.38;20.65;;;-4.90;99.90;;;;;;5016082;28;93237;-75
2022/12/14 08:11:13;;;;;;;39.10;18.63;;;-4.90;99.90;;;;;;4997746;28;94126;-75
2022/12/14 08:13:42;;;;;;;36.40;17.35;;;-4.90;99.90;;;;;;5014691;28;94834;-75
2022/12/14 08:16:14;;;;;;;35.75;17.65;;;-4.90;99.90;;;;;;5013582;28;101208;-75
2022/12/14 08:18:42;;;;;;;37.20;18.13;;;-4.80;99.90;;;;;;5015917;28;93224;-75
2022/12/14 08:21:10;;;;;;;36.63;17.00;;;-4.80;99.90;;;;;;4997640;28;95662;-75
2022/12/14 08:23:37;;;;;;;36.58;18.45;;;-4.80;99.90;;;;;;5014482;28;92429;-75
2022/12/14 08:26:05;;;;;;;36.95;17.75;;;-4.70;99.90;;;;;;5015614;28;92562;-75
2022/12/14 08:28:33;;;;;;;37.00;17.63;;;-4.70;99.90;;;;;;5014378;28;92531;-74
2022/12/14 08:31:12;;;;;;;34.80;17.45;;;-4.60;99.90;;;;;;5015679;28;93049;-75
2022/12/14 08:33:41;;;;;;;34.58;17.63;;;-4.60;99.90;;;;;;5015947;28;92771;-75
2022/12/14 08:36:14;;;;;;;35.58;16.80;;;-4.50;99.90;;;;;;5015278;28;92451;-75
2022/12/14 08:38:41;;;;;;;33.25;16.80;;;-4.50;99.90;;;;;;5013177;28;95560;-75
2022/12/14 08:41:13;;;;;;;34.75;17.58;;;-4.40;99.90;;;;;;5013844;28;95395;-74
2022/12/14 08:43:53;;;;;;;33.73;17.77;;;-4.40;99.90;;;;;;5015515;28;92566;-75
2022/12/14 08:46:21;;;;;;;37.53;18.02;;;-4.30;99.90;;;;;;5015593;28;92461;-75
2022/12/14 08:48:50;;;;;;;34.50;17.08;;;-4.30;99.90;;;;;;5015456;28;93322;-74
2022/12/14 08:51:18;;;;;;;36.08;17.48;;;-4.30;99.90;;;;;;5030809;28;95651;-75
2022/12/14 08:53:48;;;;;;;31.98;16.38;;;-4.20;99.90;;;;;;5013506;28;100097;-74
2022/12/14 08:56:18;;;;;;;32.00;16.35;;;-4.10;99.90;;;;;;4997383;28;91854;-74
2022/12/14 08:58:45;;;;;;;31.02;15.75;;;-4.10;99.90;;;;;;5013773;28;96052;-74
2022/12/14 09:01:14;;;;;;;37.97;16.92;;;-4.00;99.90;;;;;;5013595;28;93160;-74
2022/12/14 09:03:45;;;;;;;37.30;16.95;;;-3.90;99.90;;;;;;5012790;28;94903;-74
2022/12/14 09:06:25;;;;;;;32.58;16.05;;;-3.80;99.90;;;;;;5014735;28;92767;-74
2022/12/14 09:08:53;;;;;;;27.00;15.23;;;-3.70;99.90;;;;;;5015163;28;93183;-74
2022/12/14 09:11:21;;;;;;;29.48;15.88;;;-3.70;99.90;;;;;;5014822;28;93094;-74
2022/12/14 09:13:53;;;;;;;34.90;18.08;;;-3.60;99.90;;;;;;5015181;28;92513;-74
2022/12/14 09:16:22;;;;;;;31.35;15.30;;;-3.60;99.90;;;;;;5015246;28;92417;-74
2022/12/14 09:18:49;;;;;;;26.35;14.93;;;-3.50;99.90;;;;;;5013416;28;95750;-74
2022/12/14 09:21:16;;;;;;;27.85;15.43;;;-3.40;99.90;;;;;;5015015;28;93045;-74
2022/12/14 09:23:44;;;;;;;27.83;15.15;;;-3.40;99.90;;;;;;4996080;28;92715;-74
2022/12/14 09:26:17;;;;;;;28.25;14.30;;;-3.30;99.90;;;;;;5013727;28;93478;-74
2022/12/14 09:28:48;;;;;;;28.25;15.30;;;-3.20;99.90;;;;;;5013444;28;97109;-75
2022/12/14 09:31:18;;;;;;;25.92;13.85;;;-3.20;99.90;;;;;;5014794;28;95374;-75
2022/12/14 09:33:45;;;;;;;26.30;13.90;;;-3.10;99.90;;;;;;5014692;28;92457;-75
2022/12/14 09:36:15;;;;;;;25.20;14.00;;;-3.00;99.90;;;;;;5014877;28;92448;-75
2022/12/14 09:38:43;;;;;;;29.75;14.50;;;-3.00;99.90;;;;;;4996558;28;96189;-75
2022/12/14 09:41:22;;;;;;;;;;;-2.90;99.90;;;;;;4997844;28;95854;-75
2022/12/14 09:44:16;;;;;;;28.50;15.00;;;-2.80;99.90;;;;;;5031744;28;93010;-75
2022/12/14 09:46:47;;;;;;;39.72;24.05;;;-2.80;99.90;;;;;;5002171;28;91777;-75
2022/12/14 09:49:39;;;;;;;36.20;22.08;;;-2.70;99.90;;;;;;5012804;28;96093;-75
2022/12/14 09:52:14;;;;;;;31.77;17.33;;;-2.60;99.90;;;;;;5013306;28;92865;-75
2022/12/14 09:54:43;;;;;;;27.42;15.45;;;-2.50;99.90;;;;;;5013718;28;94884;-75
2022/12/14 09:57:23;;;;;;;24.65;14.25;;;-2.40;99.90;;;;;;4996377;28;92470;-75
2022/12/14 09:59:55;;;;;;;26.98;17.88;;;-2.40;99.90;;;;;;5014544;28;93233;-74
2022/12/14 10:02:37;;;;;;;28.75;17.27;;;-2.40;99.90;;;;;;5013247;28;93081;-74
2022/12/14 10:05:30;;;;;;;32.28;16.77;;;-2.30;99.90;;;;;;5014117;28;92510;-74
2022/12/14 10:08:19;;;;;;;39.80;18.27;;;-2.20;99.90;;;;;;4996511;28;92533;-74
2022/12/14 10:11:15;;;;;;;29.63;15.43;;;-2.20;99.90;;;;;;5014581;28;93244;-74
2022/12/14 10:13:52;;;;;;;27.48;15.68;;;-2.00;99.90;;;;;;5013043;28;95879;-74
2022/12/14 10:16:43;;;;;;;31.27;15.73;;;-2.00;99.90;;;;;;5014337;28;92857;-74
2022/12/14 10:19:51;;;;;;;29.70;14.82;;;-1.90;99.90;;;;;;5014036;28;92361;-74
2022/12/14 10:22:25;;;;;;;29.45;14.65;;;-1.80;99.90;;;;;;4994767;28;97242;-74
2022/12/14 10:25:13;;;;;;;27.13;14.43;;;-1.70;99.90;;;;;;5012719;28;98047;-74
2022/12/14 10:27:47;;;;;;;32.40;14.90;;;-1.60;99.90;;;;;;5014153;28;92479;-74
2022/12/14 10:30:34;;;;;;;26.40;15.15;;;-1.50;99.90;;;;;;5029540;28;92484;-74
2022/12/14 10:33:28;;;;;;;29.67;15.35;;;-1.50;99.90;;;;;;5014140;28;93223;-74
2022/12/14 10:36:22;;;;;;;29.23;15.35;;;-1.40;99.90;;;;;;5016172;28;93130;-74
2022/12/14 10:39:00;;;;;;;28.15;14.70;;;-1.30;99.90;;;;;;5017819;28;92364;-74
2022/12/14 10:41:48;;;;;;;27.13;15.30;;;-1.30;99.90;;;;;;5017740;28;91727;-74
2022/12/14 10:44:38;;;;;;;27.02;14.65;;;-1.20;99.90;;;;;;5017215;28;93257;-74
2022/12/14 10:47:14;;;;;;;26.30;14.65;;;-1.20;99.90;;;;;;5015830;28;95570;-74
2022/12/14 10:50:10;;;;;;;26.52;14.35;;;-1.10;99.90;;;;;;4998325;28;94885;-74
2022/12/14 10:52:40;;;;;;;24.60;14.50;;;-1.10;99.90;;;;;;5017256;28;92475;-74
2022/12/14 10:55:18;;;;;;;26.10;14.43;;;-1.00;99.90;;;;;;5017387;28;93232;-74
2022/12/14 10:57:45;;;;;;;26.92;15.02;;;-1.00;99.90;;;;;;5015977;28;93154;-74
2022/12/14 11:00:15;;;;;;;29.08;14.00;;;-0.90;99.90;;;;;;5017192;28;92641;-74
2022/12/14 11:02:53;;;;;;;24.95;13.90;;;-0.90;99.90;;;;;;5017365;28;92907;-73
2022/12/14 11:05:58;;;;;;;27.80;14.43;;;-0.80;99.90;;;;;;5016462;28;93469;-73
2022/12/14 11:08:44;;;;;;;26.15;13.98;;;-0.70;99.90;;;;;;4986376;28;93273;-73
2022/12/14 11:11:19;;;;;;;24.08;13.77;;;-0.70;99.90;;;;;;5015163;28;92612;-74
2022/12/14 11:13:53;;;;;;;24.47;14.07;;;-0.70;99.90;;;;;;5016198;28;93455;-73
2022/12/14 11:16:37;;;;;;;24.63;14.10;;;-0.60;99.90;;;;;;5015486;28;95543;-73
2022/12/14 11:19:19;;;;;;;29.95;14.02;;;-0.50;99.90;;;;;;5016874;28;95581;-73
2022/12/14 11:21:47;;;;;;;23.63;13.02;;;-0.50;99.90;;;;;;5015592;28;92534;-73
2022/12/14 11:24:27;;;;;;;21.55;13.48;;;-0.50;99.90;;;;;;5015367;28;92548;-73
2022/12/14 11:26:59;;;;;;;23.88;14.10;;;-0.40;99.90;;;;;;5016854;28;93329;-73
2022/12/14 11:29:31;;;;;;;25.77;13.35;;;-0.40;99.90;;;;;;5017063;28;92984;-73
2022/12/14 11:31:59;;;;;;;50.72;30.00;;;-0.30;99.90;;;;;;5017134;28;92382;-73
2022/12/14 11:34:38;;;;;;;47.28;31.80;;;-0.30;99.90;;;;;;5016619;28;91654;-73
2022/12/14 11:37:19;;;;;;;26.38;15.15;;;-0.20;99.90;;;;;;5014869;28;95753;-74
2022/12/14 11:39:50;;;;;;;26.83;15.68;;;-0.20;99.90;;;;;;5016652;28;93221;-73
2022/12/14 11:42:19;;;;;;;24.70;13.90;;;-0.10;99.90;;;;;;5015371;28;94857;-73
2022/12/14 11:44:48;;;;;;;27.85;13.90;;;-0.10;99.90;;;;;;5016335;28;92361;-73
2022/12/14 11:47:24;;;;;;;24.95;16.17;;;0.00;99.90;;;;;;5015418;28;94933;-73
2022/12/14 11:49:53;;;;;;;24.42;13.05;;;0.00;99.90;;;;;;5016338;28;93162;-73
2022/12/14 11:52:43;;;;;;;25.02;13.45;;;0.10;99.90;;;;;;4997987;28;92465;-73
2022/12/14 11:55:13;;;;;;;21.92;13.55;;;0.10;99.90;;;;;;5016332;28;92543;-73
2022/12/14 11:57:56;;;;;;;23.15;13.27;;;0.20;99.90;;;;;;5016111;28;93123;-73
2022/12/14 12:00:27;;;;;;;25.67;14.15;;;0.20;99.90;;;;;;5016504;28;92086;-73
2022/12/14 12:03:05;;;;;;;24.15;12.95;;;0.30;99.90;;;;;;5015073;28;92447;-73
2022/12/14 12:05:42;;;;;;;24.65;12.82;;;0.30;99.90;;;;;;5015933;28;92461;-73
2022/12/14 12:08:25;;;;;;;22.40;13.52;;;0.40;99.90;;;;;;5014979;28;95530;-73
2022/12/14 12:10:56;;;;;;;21.90;12.40;;;0.40;99.90;;;;;;5016029;28;95483;-73
2022/12/14 12:13:34;;;;;;;23.83;12.93;;;0.40;99.90;;;;;;5015918;28;92421;-74
2022/12/14 12:16:12;;;;;;;23.10;13.57;;;0.40;99.90;;;;;;5031619;28;93531;-74
2022/12/14 12:18:49;;;;;;;22.00;13.23;;;0.50;99.90;;;;;;5015683;28;93336;-74
2022/12/14 12:21:28;;;;;;;23.13;13.40;;;0.50;99.90;;;;;;5014730;28;92745;-74
2022/12/14 12:24:10;;;;;;;21.42;12.43;;;0.50;99.90;;;;;;5015929;28;92555;-74
2022/12/14 12:26:46;;;;;;;20.08;11.85;;;0.60;99.90;;;;;;5015949;28;91641;-74
2022/12/14 12:29:24;;;;;;;23.45;12.75;;;0.50;99.90;;;;;;5014414;28;94482;-74
2022/12/14 12:32:12;;;;;;;25.48;12.93;;;0.50;99.90;;;;;;5014146;28;95640;-74
2022/12/14 12:34:45;;;;;;;19.80;12.40;;;0.50;99.90;;;;;;5012782;28;94793;-74
2022/12/14 12:37:19;;;;;;;20.70;11.65;;;0.50;99.90;;;;;;5016045;28;92804;-74
2022/12/14 12:39:59;;;;;;;21.08;12.45;;;0.60;99.90;;;;;;5015739;28;93143;-74
2022/12/14 12:42:45;;;;;;;20.60;12.18;;;0.60;99.90;;;;;;5015539;28;93038;-74
2022/12/14 12:45:18;;;;;;;19.42;10.25;;;0.60;99.90;;;;;;5015545;28;92356;-74
2022/12/14 12:47:51;;;;;;;18.83;12.00;;;0.60;99.90;;;;;;5015707;28;92927;-74
2022/12/14 12:50:23;;;;;;;20.35;12.10;;;0.70;99.90;;;;;;5015585;28;93073;-74
2022/12/14 12:52:50;;;;;;;31.30;18.73;;;0.70;99.90;;;;;;5015583;28;93119;-74
2022/12/14 12:55:19;;;;;;;20.42;12.90;;;0.70;99.90;;;;;;5014886;28;104646;-74
2022/12/14 12:57:50;;;;;;;19.23;11.20;;;0.70;99.90;;;;;;5014678;28;92463;-74
2022/12/14 13:00:19;;;;;;;18.02;11.23;;;0.80;99.90;;;;;;5011985;28;95564;-74
2022/12/14 13:03:04;;;;;;;18.30;10.60;;;0.80;99.90;;;;;;5014761;28;95498;-74
2022/12/14 13:05:37;;;;;;;16.65;10.88;;;0.90;99.90;;;;;;5013492;28;92887;-74
2022/12/14 13:08:30;;;;;;;16.70;10.82;;;0.80;99.90;;;;;;5014249;28;92449;-74
2022/12/14 13:11:05;;;;;;;21.60;12.18;;;0.90;99.90;;;;;;5015330;28;93371;-74
2022/12/14 13:14:09;;;;;;;20.23;11.48;;;0.90;99.90;;;;;;5015052;28;93181;-74
2022/12/14 13:16:38;;;;;;;17.50;11.63;;;0.90;99.90;;;;;;5014979;28;92421;-74